Zephyr Point, Nevada
Current Conditions -  °F | °C
As of 9:53 AM on Friday 31 Oct 2014 (Local Time) from KTVL Reporting Station
Clear Clear  
Wind Chill: 55°   Ceiling: Unl
Heat Index: 55°   Visibility: 10mi
Dew Point: 24°   Wind: 25mph
Humidity: 30%   Direction: 200°SSW
Pressure: 29.9"   Gusts: 36mph
Location:  39.0164°N, 119.925°W
Report Text: KTVL 311653Z AUTO 20022G31KT 10SM CLR 13/M04 A2990 RMK AO2 PK WND 19031/1649 RAE40 SLP081 P0000 T01281044
Loading
Personal Weather Stations






























Interactive Weather Map
Tropical Storm Tracking
New forecast layout! Learn more

10-Day Weather Forecast

Advertisements
Track Severe Weather on mobile